createdAt,value
2019-02-23T00:01:50.220Z,70.30
2019-02-23T00:04:18.442Z,70.00
2019-02-23T00:06:46.668Z,69.80
2019-02-23T00:09:14.892Z,69.70
2019-02-23T00:11:43.129Z,69.90
2019-02-23T00:14:11.657Z,70.10
2019-02-23T00:16:39.875Z,70.10
2019-02-23T00:19:08.106Z,69.80
2019-02-23T00:21:36.324Z,69.60
2019-02-23T00:24:04.557Z,69.20
2019-02-23T00:26:32.868Z,69.10
2019-02-23T00:29:01.096Z,69.00
2019-02-23T00:31:29.633Z,68.90
2019-02-23T00:33:57.859Z,69.10
2019-02-23T00:36:26.077Z,69.30
2019-02-23T00:38:54.309Z,69.30
2019-02-23T00:41:22.789Z,69.50
2019-02-23T00:43:51.054Z,69.50
2019-02-23T00:46:19.328Z,69.20
2019-02-23T00:48:47.547Z,69.50
2019-02-23T00:51:15.776Z,69.50
2019-02-23T00:53:44.349Z,69.10
2019-02-23T00:56:12.580Z,69.00
2019-02-23T00:58:40.804Z,69.80
2019-02-23T01:01:09.032Z,69.20
2019-02-23T01:03:37.312Z,69.30
2019-02-23T01:06:05.885Z,69.30
2019-02-23T01:08:34.378Z,69.80
2019-02-23T01:11:02.604Z,70.40
2019-02-23T01:13:30.827Z,69.30
2019-02-23T01:15:59.063Z,69.20
2019-02-23T01:18:27.285Z,69.50
2019-02-23T01:20:55.523Z,69.50
2019-02-23T01:23:23.738Z,69.50
2019-02-23T01:25:51.963Z,69.60
2019-02-23T01:28:20.256Z,69.30
2019-02-23T01:30:48.484Z,69.70
2019-02-23T01:33:16.700Z,69.50
2019-02-23T01:35:45.357Z,69.60
2019-02-23T01:38:13.581Z,69.80
2019-02-23T01:40:41.813Z,69.80
2019-02-23T01:43:10.039Z,69.90
2019-02-23T01:45:42.345Z,69.60
2019-02-23T01:48:08.204Z,69.60
2019-02-23T01:50:36.492Z,69.60
2019-02-23T01:53:04.723Z,69.90
2019-02-23T01:55:33.204Z,70.00
2019-02-23T01:58:01.434Z,70.10
2019-02-23T02:00:29.985Z,70.10
2019-02-23T02:02:58.217Z,70.20
2019-02-23T02:05:26.769Z,70.10
2019-02-23T02:07:55.069Z,69.90
2019-02-23T02:10:23.460Z,70.30
2019-02-23T02:12:51.688Z,69.50
2019-02-23T02:15:20.233Z,69.30
2019-02-23T02:17:48.460Z,68.90
2019-02-23T02:20:16.684Z,69.20
2019-02-23T02:22:44.909Z,69.40
2019-02-23T02:25:13.388Z,69.10
2019-02-23T02:27:41.617Z,69.40
2019-02-23T02:30:10.877Z,69.40
2019-02-23T02:32:39.104Z,69.30
2019-02-23T02:35:09.064Z,69.50
2019-02-23T02:37:37.298Z,69.30
2019-02-23T02:40:07.166Z,69.70
2019-02-23T02:42:35.372Z,70.60
2019-02-23T02:45:04.208Z,69.80
2019-02-23T02:47:32.436Z,69.90
2019-02-23T02:50:00.659Z,70.20
2019-02-23T02:52:28.884Z,70.00
2019-02-23T02:54:57.101Z,70.10
2019-02-23T02:57:25.340Z,70.40
2019-02-23T02:59:53.565Z,70.30
2019-02-23T03:02:22.134Z,70.40
2019-02-23T03:04:50.348Z,70.70
2019-02-23T03:07:18.577Z,70.30
2019-02-23T03:09:46.796Z,70.10
2019-02-23T03:12:15.497Z,70.00
2019-02-23T03:14:43.713Z,70.10
2019-02-23T03:17:11.952Z,69.80
2019-02-23T03:19:40.177Z,70.10
2019-02-23T03:22:08.411Z,70.40
2019-02-23T03:24:36.641Z,70.50
2019-02-23T03:27:05.209Z,70.10
2019-02-23T03:29:33.821Z,70.50
2019-02-23T03:32:02.322Z,70.40
2019-02-23T03:34:30.549Z,70.70
2019-02-23T03:36:58.760Z,71.00
2019-02-23T03:39:27.033Z,71.10
2019-02-23T03:41:55.247Z,71.00
2019-02-23T03:44:23.479Z,71.40
2019-02-23T03:46:52.466Z,71.50
2019-02-23T03:49:20.960Z,71.60
2019-02-23T03:51:49.177Z,71.50
2019-02-23T03:54:17.747Z,71.20
2019-02-23T03:56:46.256Z,71.00
2019-02-23T03:59:14.532Z,70.90
2019-02-23T04:01:42.797Z,70.90
2019-02-23T04:04:11.404Z,70.90
2019-02-23T04:06:39.644Z,71.00
2019-02-23T04:09:07.880Z,71.30
2019-02-23T04:11:36.142Z,70.60
2019-02-23T04:14:04.373Z,70.60
2019-02-23T04:16:33.056Z,70.60
2019-02-23T04:19:01.290Z,70.60
2019-02-23T04:21:29.849Z,71.20
2019-02-23T04:23:58.078Z,71.00
2019-02-23T04:26:26.316Z,70.80
2019-02-23T04:28:54.816Z,70.60
2019-02-23T04:31:23.036Z,70.50
2019-02-23T04:33:51.268Z,70.70
2019-02-23T04:36:19.921Z,70.60
2019-02-23T04:38:48.185Z,70.50
2019-02-23T04:41:16.421Z,70.90
2019-02-23T04:43:44.658Z,70.90
2019-02-23T04:46:12.876Z,70.70
2019-02-23T04:48:41.428Z,70.80
2019-02-23T04:51:14.201Z,70.80
2019-02-23T04:53:39.604Z,71.50
2019-02-23T04:56:07.833Z,70.90
2019-02-23T04:58:36.055Z,70.90
2019-02-23T05:01:04.623Z,70.90
2019-02-23T05:03:32.853Z,70.30
2019-02-23T05:06:01.402Z,70.20
2019-02-23T05:08:29.682Z,70.20
2019-02-23T05:10:57.928Z,70.00
2019-02-23T05:13:26.160Z,70.00
2019-02-23T05:15:54.385Z,69.70
2019-02-23T05:18:22.624Z,69.20
2019-02-23T05:20:51.142Z,69.90
2019-02-23T05:23:19.629Z,69.70
2019-02-23T05:25:47.851Z,69.60
2019-02-23T05:28:16.135Z,70.10
2019-02-23T05:30:44.421Z,69.60
2019-02-23T05:33:12.988Z,69.50
2019-02-23T05:35:41.208Z,69.60
2019-02-23T05:38:09.440Z,69.80
2019-02-23T05:40:37.665Z,69.60
2019-02-23T05:43:05.891Z,69.20
2019-02-23T05:45:34.433Z,69.20
2019-02-23T05:48:02.676Z,69.00
2019-02-23T05:50:30.897Z,69.00
2019-02-23T05:52:59.132Z,69.00
2019-02-23T05:55:27.697Z,69.30
2019-02-23T05:57:55.933Z,68.70
2019-02-23T06:00:24.477Z,69.30
2019-02-23T06:02:52.721Z,68.70
2019-02-23T06:05:20.933Z,68.90
2019-02-23T06:07:49.160Z,68.90
2019-02-23T06:10:17.400Z,68.90
2019-02-23T06:12:45.617Z,69.10
2019-02-23T06:15:13.857Z,69.20
2019-02-23T06:17:42.080Z,69.10
2019-02-23T06:20:10.323Z,69.30
2019-02-23T06:22:38.872Z,68.90
2019-02-23T06:25:08.402Z,68.80
2019-02-23T06:27:36.993Z,69.50
2019-02-23T06:30:11.224Z,68.70
2019-02-23T06:32:39.444Z,69.20
2019-02-23T06:35:09.520Z,69.00
2019-02-23T06:37:37.740Z,68.80
2019-02-23T06:40:10.973Z,68.40
2019-02-23T06:42:39.196Z,68.50
2019-02-23T06:45:12.489Z,68.40
2019-02-23T06:47:40.707Z,68.30
2019-02-23T06:50:08.941Z,68.30
2019-02-23T06:52:37.504Z,68.20
2019-02-23T06:55:06.906Z,68.40
2019-02-23T06:57:35.176Z,99.90
2019-02-23T07:00:05.089Z,96.90
2019-02-23T07:02:33.425Z,91.30
2019-02-23T07:05:01.658Z,71.80
2019-02-23T07:07:30.210Z,64.30
2019-02-23T07:09:58.448Z,59.00
2019-02-23T07:12:26.676Z,50.80
2019-02-23T07:14:55.116Z,51.20
2019-02-23T07:17:23.343Z,53.00
2019-02-23T07:19:51.568Z,55.20
2019-02-23T07:22:20.052Z,56.70
2019-02-23T07:24:48.284Z,58.10
2019-02-23T07:27:16.837Z,59.50
2019-02-23T07:29:45.069Z,60.20
2019-02-23T07:32:13.287Z,61.50
2019-02-23T07:34:41.809Z,61.50
2019-02-23T07:37:10.039Z,61.50
2019-02-23T07:39:38.584Z,62.00
2019-02-23T07:42:06.965Z,61.90
2019-02-23T07:44:35.316Z,62.40
2019-02-23T07:47:03.532Z,62.80
2019-02-23T07:49:31.763Z,63.00
2019-02-23T07:51:59.984Z,62.80
2019-02-23T07:54:28.228Z,63.10
2019-02-23T07:56:56.444Z,62.30
2019-02-23T07:59:24.677Z,61.70
2019-02-23T08:01:52.900Z,62.10
2019-02-23T08:04:21.116Z,62.70
2019-02-23T08:06:49.385Z,62.40
2019-02-23T08:09:17.613Z,61.70
2019-02-23T08:11:45.855Z,61.50
2019-02-23T08:14:14.077Z,61.40
2019-02-23T08:16:42.320Z,60.70
2019-02-23T08:19:10.540Z,60.60
2019-02-23T08:21:38.779Z,59.80
2019-02-23T08:24:06.998Z,58.80
2019-02-23T08:26:35.592Z,61.00
2019-02-23T08:29:04.060Z,58.20
2019-02-23T08:31:32.296Z,57.50
2019-02-23T08:34:00.519Z,57.40
2019-02-23T08:36:29.036Z,56.90
2019-02-23T08:38:57.252Z,56.70
2019-02-23T08:41:25.817Z,56.90
2019-02-23T08:43:54.044Z,56.20
2019-02-23T08:46:22.286Z,56.30
2019-02-23T08:48:50.796Z,55.80
2019-02-23T08:51:19.029Z,55.40
2019-02-23T08:53:47.251Z,54.70
2019-02-23T08:56:15.484Z,54.40
2019-02-23T08:58:44.048Z,53.60
2019-02-23T09:01:12.282Z,53.40
2019-02-23T09:03:40.508Z,53.40
2019-02-23T09:06:08.764Z,51.60
2019-02-23T09:08:36.984Z,52.70
2019-02-23T09:11:06.185Z,51.40
2019-02-23T09:13:34.416Z,50.70
2019-02-23T09:16:02.989Z,50.90
2019-02-23T09:18:31.221Z,51.10
2019-02-23T09:20:59.463Z,49.30
2019-02-23T09:23:27.981Z,48.90
2019-02-23T09:25:57.847Z,49.10
2019-02-23T09:28:26.232Z,49.10
2019-02-23T09:30:54.475Z,48.40
2019-02-23T09:33:22.695Z,48.80
2019-02-23T09:35:50.946Z,49.00
2019-02-23T09:38:19.441Z,48.70
2019-02-23T09:40:47.709Z,48.00
2019-02-23T09:43:17.738Z,47.00
2019-02-23T09:45:45.896Z,46.70
2019-02-23T09:48:14.436Z,47.10
2019-02-23T09:50:43.037Z,47.30
2019-02-23T09:53:12.174Z,46.90
2019-02-23T09:55:40.455Z,44.80
2019-02-23T09:58:08.928Z,45.00
2019-02-23T10:00:37.165Z,45.00
2019-02-23T10:03:05.426Z,46.10
2019-02-23T10:05:33.788Z,45.70
2019-02-23T10:08:02.289Z,44.10
2019-02-23T10:10:30.508Z,44.00
2019-02-23T10:12:58.743Z,44.70
2019-02-23T10:15:26.972Z,43.00
2019-02-23T10:17:55.209Z,42.50
2019-02-23T10:20:23.428Z,41.30
2019-02-23T10:22:51.659Z,40.30
2019-02-23T10:25:20.215Z,40.00
2019-02-23T10:27:48.453Z,41.00
2019-02-23T10:30:17.633Z,39.70
2019-02-23T10:32:45.921Z,39.00
2019-02-23T10:35:14.312Z,38.90
2019-02-23T10:37:42.552Z,39.50
2019-02-23T10:40:11.909Z,38.60
2019-02-23T10:42:40.174Z,40.10
2019-02-23T10:45:10.944Z,39.00
2019-02-23T10:47:39.187Z,39.70
2019-02-23T10:50:09.641Z,39.10
2019-02-23T10:52:38.145Z,37.80
2019-02-23T10:55:09.280Z,37.40
2019-02-23T10:57:36.812Z,37.90
2019-02-23T11:00:10.172Z,37.90
2019-02-23T11:02:38.404Z,36.90
2019-02-23T11:05:07.433Z,35.80
2019-02-23T11:07:35.968Z,35.70
2019-02-23T11:10:05.631Z,36.00
2019-02-23T11:12:33.864Z,35.10
2019-02-23T11:15:02.082Z,36.60
2019-02-23T11:17:30.320Z,34.30
2019-02-23T11:19:58.848Z,34.70
2019-02-23T11:22:27.166Z,33.10
2019-02-23T11:24:55.633Z,32.50
2019-02-23T11:27:23.871Z,33.50
2019-02-23T11:29:52.113Z,32.50
2019-02-23T11:32:20.620Z,31.50
2019-02-23T11:34:48.840Z,31.80
2019-02-23T11:37:17.096Z,31.50
2019-02-23T11:39:45.320Z,31.50
2019-02-23T11:42:13.861Z,30.40
2019-02-23T11:44:42.080Z,30.10
2019-02-23T11:47:10.347Z,31.40
2019-02-23T11:49:38.848Z,32.50
2019-02-23T11:52:07.070Z,31.00
2019-02-23T11:54:35.291Z,30.20
2019-02-23T11:57:03.552Z,29.00
2019-02-23T11:59:32.160Z,29.40
2019-02-23T12:02:00.408Z,29.30
2019-02-23T12:04:28.623Z,29.00
2019-02-23T12:06:57.180Z,28.70
2019-02-23T12:09:25.411Z,28.40
2019-02-23T12:11:53.697Z,28.60
2019-02-23T12:14:21.968Z,29.40
2019-02-23T12:16:50.531Z,28.00
2019-02-23T12:19:19.016Z,27.60
2019-02-23T12:21:47.243Z,28.50
2019-02-23T12:24:15.476Z,28.30
2019-02-23T12:26:43.696Z,27.00
2019-02-23T12:29:11.956Z,28.40
2019-02-23T12:31:40.202Z,27.50
2019-02-23T12:34:08.752Z,26.30
2019-02-23T12:36:36.972Z,26.20
2019-02-23T12:39:05.389Z,26.70
2019-02-23T12:41:33.607Z,25.50
2019-02-23T12:44:02.117Z,25.00
2019-02-23T12:46:30.340Z,25.00
2019-02-23T12:48:58.581Z,24.30
2019-02-23T12:51:26.800Z,24.20
2019-02-23T12:53:55.378Z,24.20
2019-02-23T12:56:23.598Z,23.70
2019-02-23T12:58:51.850Z,24.10
2019-02-23T13:01:20.072Z,23.30
2019-02-23T13:03:48.305Z,24.00
2019-02-23T13:06:16.820Z,24.00
2019-02-23T13:09:13.556Z,23.90
2019-02-23T13:11:45.024Z,22.00
2019-02-23T13:14:44.974Z,22.80
2019-02-23T13:17:37.904Z,22.10
2019-02-23T13:20:32.656Z,21.90
2019-02-23T13:23:19.305Z,21.10
2019-02-23T13:26:15.751Z,21.70
2019-02-23T13:29:19.335Z,22.40
2019-02-23T13:32:17.086Z,22.20
2019-02-23T13:35:05.064Z,20.70
2019-02-23T13:37:45.536Z,21.60
2019-02-23T13:40:34.908Z,20.60
2019-02-23T13:43:23.570Z,20.70
2019-02-23T13:45:57.781Z,20.30
2019-02-23T13:48:38.495Z,21.70
2019-02-23T13:51:29.663Z,21.00
2019-02-23T13:54:10.168Z,20.70
2019-02-23T13:56:56.504Z,21.00
2019-02-23T13:59:46.644Z,20.50
2019-02-23T14:02:30.368Z,20.70
2019-02-23T14:05:13.737Z,20.30
2019-02-23T14:07:53.953Z,20.70
2019-02-23T14:10:46.372Z,20.80
2019-02-23T14:13:32.708Z,20.70
2019-02-23T14:16:26.888Z,21.20
2019-02-23T14:19:04.322Z,20.60
2019-02-23T14:21:52.321Z,20.40
2019-02-23T14:24:49.523Z,21.00
2019-02-23T14:27:37.616Z,21.20
2019-02-23T14:30:44.041Z,21.60
2019-02-23T14:33:21.860Z,21.20
2019-02-23T14:35:59.153Z,21.10
2019-02-23T14:38:51.382Z,21.60
2019-02-23T14:41:44.393Z,22.20
2019-02-23T14:44:48.016Z,21.50
2019-02-23T14:47:22.078Z,21.70
2019-02-23T14:50:12.807Z,22.30
2019-02-23T14:52:47.120Z,22.10
2019-02-23T14:55:43.692Z,22.10
2019-02-23T14:58:36.738Z,23.30
2019-02-23T15:01:23.364Z,22.30
2019-02-23T15:04:21.604Z,22.80
2019-02-23T15:06:59.541Z,23.60
2019-02-23T15:10:06.329Z,22.50
2019-02-23T15:12:40.981Z,23.90
2019-02-23T15:15:21.963Z,23.00
2019-02-23T15:18:13.152Z,24.40
2019-02-23T15:20:56.434Z,24.50
2019-02-23T15:23:54.808Z,24.40
2019-02-23T15:26:35.607Z,24.80
2019-02-23T15:29:07.444Z,24.00
2019-02-23T15:31:50.756Z,24.70
2019-02-23T15:34:40.624Z,24.50
2019-02-23T15:37:14.680Z,24.60
2019-02-23T15:40:15.800Z,24.90
2019-02-23T15:42:49.912Z,24.20
2019-02-23T15:45:33.494Z,24.00
2019-02-23T15:48:17.015Z,24.30
2019-02-23T15:50:45.561Z,24.30
2019-02-23T15:53:14.164Z,24.00
2019-02-23T15:55:42.455Z,24.70
2019-02-23T15:58:11.009Z,24.80
2019-02-23T16:00:39.232Z,24.80
2019-02-23T16:03:07.468Z,25.00
2019-02-23T16:05:35.977Z,24.10
2019-02-23T16:08:04.216Z,24.50
2019-02-23T16:10:32.448Z,24.60
2019-02-23T16:13:00.684Z,25.10
2019-02-23T16:15:28.910Z,24.20
2019-02-23T16:17:57.144Z,25.00
2019-02-23T16:20:25.369Z,24.40
2019-02-23T16:22:53.611Z,24.70
2019-02-23T16:25:21.834Z,24.50
2019-02-23T16:27:50.076Z,24.90
2019-02-23T16:30:18.566Z,25.10
2019-02-23T16:32:46.815Z,25.40
2019-02-23T16:35:15.028Z,25.60
2019-02-23T16:37:43.267Z,24.90
2019-02-23T16:40:11.488Z,24.50
2019-02-23T16:42:39.728Z,37.90
2019-02-23T16:45:08.995Z,25.70
2019-02-23T16:47:37.232Z,25.40
2019-02-23T16:50:07.733Z,24.80
2019-02-23T16:52:36.236Z,24.80
2019-02-23T16:55:04.460Z,24.20
2019-02-23T16:57:33.021Z,24.40
2019-02-23T17:00:01.526Z,27.60
2019-02-23T17:02:30.008Z,25.20
2019-02-23T17:04:58.228Z,24.70
2019-02-23T17:07:26.476Z,24.40
2019-02-23T17:09:54.981Z,24.20
2019-02-23T17:12:23.217Z,24.50
2019-02-23T17:14:51.440Z,24.70
2019-02-23T17:17:19.677Z,24.90
2019-02-23T17:19:47.898Z,24.70
2019-02-23T17:22:16.151Z,24.60
2019-02-23T17:24:44.722Z,24.70
2019-02-23T17:27:12.960Z,24.50
2019-02-23T17:29:41.202Z,25.20
2019-02-23T17:32:09.500Z,24.90
2019-02-23T17:34:37.737Z,25.40
2019-02-23T17:37:05.991Z,25.60
2019-02-23T17:39:34.453Z,25.00
2019-02-23T17:42:02.786Z,25.20
2019-02-23T17:44:31.146Z,26.00
2019-02-23T17:46:59.393Z,25.60
2019-02-23T17:49:27.637Z,25.10
2019-02-23T17:51:55.856Z,25.20
2019-02-23T17:54:24.092Z,26.20
2019-02-23T17:56:52.573Z,25.30
2019-02-23T17:59:20.810Z,26.00
2019-02-23T18:01:49.037Z,26.20
2019-02-23T18:04:17.268Z,26.30
2019-02-23T18:06:45.936Z,26.30
2019-02-23T18:09:14.176Z,26.40
2019-02-23T18:11:42.396Z,26.10
2019-02-23T18:14:10.636Z,26.00
2019-02-23T18:16:38.852Z,27.10
2019-02-23T18:19:07.088Z,27.40
2019-02-23T18:21:35.304Z,26.70
2019-02-23T18:24:03.544Z,27.40
2019-02-23T18:26:32.069Z,27.20
2019-02-23T18:29:00.648Z,27.20
2019-02-23T18:31:28.869Z,27.90
2019-02-23T18:33:57.108Z,27.70
2019-02-23T18:36:25.328Z,27.60
2019-02-23T18:38:53.897Z,28.20
2019-02-23T18:41:22.707Z,27.40
2019-02-23T18:43:51.164Z,28.40
2019-02-23T18:46:19.389Z,27.90
2019-02-23T18:48:47.625Z,27.50
2019-02-23T18:51:15.854Z,27.60
2019-02-23T18:53:44.088Z,27.70
2019-02-23T18:56:12.304Z,28.40
2019-02-23T18:58:40.540Z,27.80
2019-02-23T19:01:08.758Z,27.60
2019-02-23T19:03:37.031Z,27.70
2019-02-23T19:06:05.247Z,28.80
2019-02-23T19:08:33.483Z,27.80
2019-02-23T19:11:01.972Z,27.80
2019-02-23T19:13:30.220Z,27.80
2019-02-23T19:15:58.512Z,27.20
2019-02-23T19:18:27.052Z,27.20
2019-02-23T19:20:55.265Z,27.30
2019-02-23T19:23:23.833Z,28.60
2019-02-23T19:25:52.045Z,28.20
2019-02-23T19:28:20.612Z,27.40
2019-02-23T19:30:48.829Z,27.90
2019-02-23T19:33:17.128Z,27.90
2019-02-23T19:35:45.373Z,29.30
2019-02-23T19:38:13.612Z,28.50
2019-02-23T19:40:41.880Z,29.40
2019-02-23T19:43:10.552Z,28.30
2019-02-23T19:45:38.852Z,28.90
2019-02-23T19:48:07.336Z,28.30
2019-02-23T19:50:47.732Z,29.20
2019-02-23T19:53:15.957Z,29.10
2019-02-23T19:55:44.171Z,28.70
2019-02-23T19:58:12.409Z,28.30
2019-02-23T20:00:40.624Z,28.80
2019-02-23T20:03:09.164Z,28.80
2019-02-23T20:05:37.409Z,28.90
2019-02-23T20:08:05.937Z,29.00
2019-02-23T20:10:34.203Z,28.60
2019-02-23T20:13:03.672Z,29.40
2019-02-23T20:15:33.004Z,28.50
2019-02-23T20:18:01.272Z,28.20
2019-02-23T20:20:29.499Z,29.80
2019-02-23T20:22:58.029Z,29.20
2019-02-23T20:25:26.421Z,29.10
2019-02-23T20:27:57.564Z,30.10
2019-02-23T20:30:25.192Z,31.10
2019-02-23T20:32:53.424Z,29.80
2019-02-23T20:35:21.664Z,29.60
2019-02-23T20:37:49.884Z,29.40
2019-02-23T20:40:18.127Z,29.00
2019-02-23T20:42:46.356Z,30.70
2019-02-23T20:45:14.882Z,29.80
2019-02-23T20:47:43.180Z,30.10
2019-02-23T20:50:11.492Z,30.60
2019-02-23T20:52:39.710Z,30.30
2019-02-23T20:55:08.883Z,30.00
2019-02-23T20:57:37.136Z,32.70
2019-02-23T21:00:10.395Z,30.70
2019-02-23T21:02:38.944Z,30.30
2019-02-23T21:05:09.823Z,29.70
2019-02-23T21:07:38.327Z,32.60
2019-02-23T21:10:09.038Z,30.30
2019-02-23T21:12:37.351Z,29.10
2019-02-23T21:17:46.520Z,30.10
2019-02-23T21:20:14.766Z,28.80
2019-02-23T21:22:42.981Z,28.90
2019-02-23T21:25:11.216Z,28.80
2019-02-23T21:27:39.443Z,30.60
2019-02-23T21:30:09.642Z,29.60
2019-02-23T21:32:38.025Z,28.70
2019-02-23T21:35:08.241Z,28.30
2019-02-23T21:37:36.539Z,27.20
2019-02-23T21:40:07.536Z,27.10
2019-02-23T21:42:35.752Z,28.00
2019-02-23T21:45:05.533Z,26.90
2019-02-23T21:47:33.805Z,27.20
2019-02-23T21:50:02.041Z,28.20
2019-02-23T21:52:30.257Z,27.30
2019-02-23T21:54:58.565Z,26.90
2019-02-23T21:57:27.037Z,29.20
2019-02-23T21:59:55.270Z,28.00
2019-02-23T22:02:23.507Z,27.70
2019-02-23T22:04:52.102Z,28.40
2019-02-23T22:07:20.341Z,29.40
2019-02-23T22:09:48.852Z,29.50
2019-02-23T22:12:17.065Z,27.90
2019-02-23T22:14:45.298Z,29.50
2019-02-23T22:17:13.517Z,29.60
2019-02-23T22:19:41.752Z,28.40
2019-02-23T22:22:09.972Z,28.60
2019-02-23T22:24:38.200Z,28.50
2019-02-23T22:27:06.517Z,29.10
2019-02-23T22:29:34.820Z,29.90
2019-02-23T22:32:03.040Z,27.40
2019-02-23T22:34:31.269Z,26.80
2019-02-23T22:36:59.573Z,28.10
2019-02-23T22:39:27.795Z,28.50
2019-02-23T22:41:56.099Z,27.70
2019-02-23T22:44:24.673Z,27.70
2019-02-23T22:46:52.900Z,25.90
2019-02-23T22:49:21.116Z,26.20
2019-02-23T22:51:49.347Z,27.10
2019-02-23T22:54:17.885Z,25.60
2019-02-23T22:56:46.116Z,25.70
2019-02-23T22:59:14.332Z,25.70
2019-02-23T23:01:43.064Z,25.80
2019-02-23T23:04:11.559Z,27.50
2019-02-23T23:06:39.780Z,27.00
2019-02-23T23:09:09.639Z,27.30
2019-02-23T23:11:38.160Z,27.00
2019-02-23T23:14:06.374Z,26.90
2019-02-23T23:16:34.604Z,26.10
2019-02-23T23:19:03.336Z,27.30
2019-02-23T23:21:31.559Z,26.60
2019-02-23T23:23:59.776Z,26.00
2019-02-23T23:26:28.006Z,27.90
2019-02-23T23:28:56.225Z,26.70
2019-02-23T23:31:24.781Z,26.20
2019-02-23T23:33:53.277Z,26.50
2019-02-23T23:36:21.499Z,25.70
2019-02-23T23:38:50.060Z,28.40
2019-02-23T23:41:18.292Z,25.30
2019-02-23T23:43:46.500Z,25.80
2019-02-23T23:46:15.029Z,25.00
2019-02-23T23:48:43.245Z,24.40
2019-02-23T23:51:11.474Z,24.30
2019-02-23T23:53:39.691Z,25.00
2019-02-23T23:56:07.916Z,22.50
2019-02-23T23:58:36.136Z,23.90
